Time;durP1;ratioP1;P1;durP2;ratioP2;P2;SDS_P1;SDS_P2;PMS_P1;PMS_P2;Temp;Humidity;BMP_temperature;BMP_pressure;BME280_temperature;BME280_humidity;BME280_pressure;Samples;Min_cycle;Max_cycle;Signal;HPM_P1;HPM_P2
2022/10/29 00:01:12;;;;;;;;;;;15.40;99.90;;;;;;5068826;28;19913;-73
2022/10/29 00:03:38;;;;;;;;;;;15.40;99.90;;;;;;5069173;28;19917;-73
2022/10/29 00:06:09;;;;;;;;;;;15.50;99.90;;;;;;5068771;28;19921;-73
2022/10/29 00:08:35;;;;;;;;;;;15.50;99.90;;;;;;5047913;28;20385;-73
2022/10/29 00:11:08;;;;;;;;;;;15.40;99.90;;;;;;5067156;28;19917;-73
2022/10/29 00:13:34;;;;;;;;;;;15.30;99.90;;;;;;5067683;28;20027;-73
2022/10/29 00:16:03;;;;;;;;;;;15.30;99.90;;;;;;5068336;28;20397;-73
2022/10/29 00:18:29;;;;;;;;;;;15.30;99.90;;;;;;5065794;28;19912;-73
2022/10/29 00:21:05;;;;;;;;;;;15.20;99.90;;;;;;5067283;28;19982;-72
2022/10/29 00:23:30;;;;;;;;;;;15.20;99.90;;;;;;5064246;28;19913;-73
2022/10/29 00:25:59;;;;;;;;;;;15.10;99.90;;;;;;5065221;28;19923;-73
2022/10/29 00:28:25;;;;;;;;;;;15.10;99.90;;;;;;5055396;28;19920;-72
2022/10/29 00:30:51;;;;;;;;;;;15.20;99.90;;;;;;5068707;28;19936;-73
2022/10/29 00:33:17;;;;;;;;;;;15.10;99.90;;;;;;5044389;28;19913;-73
2022/10/29 00:35:53;;;;;;;;;;;15.10;99.90;;;;;;5067971;28;19981;-73
2022/10/29 00:38:19;;;;;;;;;;;15.10;99.90;;;;;;5049054;28;19967;-73
2022/10/29 00:40:44;;;;;;;;;;;15.10;99.90;;;;;;5065710;28;19951;-73
2022/10/29 00:43:14;;;;;;;;;;;15.10;99.90;;;;;;5067244;28;20378;-73
2022/10/29 00:45:41;;;;;;;;;;;15.10;99.90;;;;;;5065775;28;20436;-72
2022/10/29 00:48:07;;;;;;;;;;;15.10;99.90;;;;;;5067142;28;19920;-73
2022/10/29 00:50:33;;;;;;;;;;;15.10;99.90;;;;;;5067445;28;19924;-73
2022/10/29 00:53:00;;;;;;;;;;;15.10;99.90;;;;;;5066016;28;19927;-73
2022/10/29 00:55:26;;;;;;;;;;;15.10;99.90;;;;;;5066833;28;20409;-74
2022/10/29 00:57:53;;;;;;;;;;;15.10;99.90;;;;;;5067525;28;19917;-73
2022/10/29 01:00:20;;;;;;;;;;;15.10;99.90;;;;;;5064445;28;19912;-72
2022/10/29 01:02:46;;;;;;;;;;;15.10;99.90;;;;;;5046244;28;19912;-73
2022/10/29 01:05:14;;;;;;;;;;;15.10;99.90;;;;;;5050751;28;20495;-73
2022/10/29 01:07:40;;;;;;;;;;;15.10;99.90;;;;;;5050616;28;19919;-72
2022/10/29 01:10:06;;;;;;;;;;;15.20;99.90;;;;;;5050946;28;19912;-73
2022/10/29 01:12:55;;;;;;;;;;;15.10;99.90;;;;;;5065992;28;20003;-72
2022/10/29 01:15:27;;;;;;;;;;;15.20;99.90;;;;;;5054904;28;19916;-73
2022/10/29 01:18:01;;;;;;;;;;;15.20;99.90;;;;;;5068601;28;19966;-73
2022/10/29 01:20:45;;;;;;;;;;;15.20;99.90;;;;;;5078453;28;20366;-73
2022/10/29 01:23:20;;;;;;;;;;;15.30;99.90;;;;;;5057584;28;20375;-73
2022/10/29 01:25:46;;;;;;;;;;;15.30;99.90;;;;;;5064093;28;19909;-73
2022/10/29 01:28:14;;;;;;;;;;;15.20;99.90;;;;;;5037248;28;19912;-73
2022/10/29 01:31:24;;;;;;;;;;;;;;;;;;;;;
2022/10/29 01:33:57;;;;;;;;;;;15.20;99.90;;;;;;5068362;28;20820;-73
2022/10/29 01:36:28;;;;;;;;;;;15.20;99.90;;;;;;5066025;28;19919;-73
2022/10/29 01:39:12;;;;;;;;;;;15.20;99.90;;;;;;5066605;28;19982;-72
2022/10/29 01:41:52;;;;;;;;;;;15.20;99.90;;;;;;5066243;28;19928;-73
2022/10/29 01:44:24;;;;;;;;;;;15.30;99.90;;;;;;5048427;28;19935;-73
2022/10/29 01:47:13;;;;;;;;;;;15.30;99.90;;;;;;5064131;28;19919;-73
2022/10/29 01:49:41;;;;;;;;;;;15.30;99.90;;;;;;5042682;28;19970;-73
2022/10/29 01:52:09;;;;;;;;;;;15.30;99.90;;;;;;5067152;28;19916;-73
2022/10/29 01:54:45;;;;;;;;;;;15.20;99.90;;;;;;5048934;28;19919;-73
2022/10/29 01:57:26;;;;;;;;;;;15.20;99.90;;;;;;5074704;28;19909;-72
2022/10/29 01:59:53;;;;;;;;;;;15.20;99.90;;;;;;5073602;28;19920;-72
2022/10/29 02:02:34;;;;;;;;;;;15.20;99.90;;;;;;5050226;28;19920;-72
2022/10/29 02:05:06;;;;;;;;;;;15.10;99.90;;;;;;5050111;28;19956;-72
2022/10/29 02:07:44;;;;;;;;;;;15.10;99.90;;;;;;5063415;28;19923;-72
2022/10/29 02:10:32;;;;;;;;;;;15.10;99.90;;;;;;5063868;28;20324;-72
2022/10/29 02:13:01;;;;;;;;;;;15.10;99.90;;;;;;5070656;28;20437;-73
2022/10/29 02:15:47;;;;;;;;;;;15.20;99.90;;;;;;5069886;28;19916;-73
2022/10/29 02:18:34;;;;;;;;;;;15.20;99.90;;;;;;5069153;28;19920;-72
2022/10/29 02:21:12;;;;;;;;;;;15.20;99.90;;;;;;5085704;28;19917;-72
2022/10/29 02:23:38;;;;;;;;;;;15.30;99.90;;;;;;5076463;28;20514;-72
2022/10/29 02:26:04;;;;;;;;;;;15.30;99.90;;;;;;5060963;28;20405;-73
2022/10/29 02:28:30;;;;;;;;;;;15.10;99.90;;;;;;5075041;28;19912;-73
2022/10/29 02:30:55;;;;;;;;;;;15.00;99.90;;;;;;5071023;28;19917;-72
2022/10/29 02:33:21;;;;;;;;;;;14.90;99.90;;;;;;5069910;28;19930;-73
2022/10/29 02:35:47;;;;;;;;;;;14.80;99.90;;;;;;5070345;28;19912;-73
2022/10/29 02:38:12;;;;;;;;;;;14.70;99.90;;;;;;5069054;28;20263;-73
2022/10/29 02:40:38;;;;;;;;;;;14.70;99.90;;;;;;5070921;28;19958;-73
2022/10/29 02:43:04;;;;;;;;;;;14.60;99.90;;;;;;5052351;28;19920;-72
2022/10/29 02:45:29;;;;;;;;;;;14.60;99.90;;;;;;5048291;28;19916;-74
2022/10/29 02:47:55;;;;;;;;;;;14.50;99.90;;;;;;5069791;28;19912;-73
2022/10/29 02:50:39;;;;;;;;;;;14.40;99.90;;;;;;5051527;28;19920;-73
2022/10/29 02:53:05;;;;;;;;;;;14.30;99.90;;;;;;5051031;28;19919;-73
2022/10/29 02:55:31;;;;;;;;;;;14.20;99.90;;;;;;5065291;28;19913;-73
2022/10/29 02:57:56;;;;;;;;;;;14.20;99.90;;;;;;5048676;28;19929;-73
2022/10/29 03:00:22;;;;;;;;;;;14.10;99.90;;;;;;5068497;28;20273;-73
2022/10/29 03:02:51;;;;;;;;;;;14.10;99.90;;;;;;5070488;28;19916;-73
2022/10/29 03:05:17;;;;;;;;;;;14.10;99.90;;;;;;5052002;28;19966;-73
2022/10/29 03:07:43;;;;;;;;;;;14.10;99.90;;;;;;5068330;28;19921;-73
2022/10/29 03:10:09;;;;;;;;;;;14.20;99.90;;;;;;5048528;28;19916;-73
2022/10/29 03:12:34;;;;;;;;;;;14.20;99.90;;;;;;5046587;28;19916;-72
2022/10/29 03:15:00;;;;;;;;;;;14.20;99.90;;;;;;5064930;28;19955;-73
2022/10/29 03:17:26;;;;;;;;;;;14.20;99.90;;;;;;5067235;28;20015;-75
2022/10/29 03:19:52;;;;;;;;;;;14.20;99.90;;;;;;5068672;28;19920;-73
2022/10/29 03:22:17;;;;;;;;;;;14.20;99.90;;;;;;5047990;28;19916;-73
2022/10/29 03:24:43;;;;;;;;;;;14.20;99.90;;;;;;5051048;28;19913;-73
2022/10/29 03:27:09;;;;;;;;;;;14.20;99.90;;;;;;5066758;28;21135;-72
2022/10/29 03:29:35;;;;;;;;;;;14.20;99.90;;;;;;5069920;28;19913;-71
2022/10/29 03:32:00;;;;;;;;;;;14.20;99.90;;;;;;5069575;28;19922;-72
2022/10/29 03:34:26;;;;;;;;;;;14.20;99.90;;;;;;5067291;28;19987;-72
2022/10/29 03:36:52;;;;;;;;;;;14.10;99.90;;;;;;5054592;28;19921;-72
2022/10/29 03:39:18;;;;;;;;;;;14.10;99.90;;;;;;5067937;28;19916;-73
2022/10/29 03:41:43;;;;;;;;;;;14.10;99.90;;;;;;5069583;28;19912;-73
2022/10/29 03:44:09;;;;;;;;;;;14.10;99.90;;;;;;5050770;28;19952;-73
2022/10/29 03:46:35;;;;;;;;;;;14.20;99.90;;;;;;5065704;28;20041;-72
2022/10/29 03:49:01;;;;;;;;;;;14.30;99.90;;;;;;5067805;28;19947;-73
2022/10/29 03:51:26;;;;;;;;;;;14.30;99.90;;;;;;5065676;28;19923;-72
2022/10/29 03:53:52;;;;;;;;;;;14.30;99.90;;;;;;5070033;28;19912;-72
2022/10/29 03:56:18;;;;;;;;;;;14.30;99.90;;;;;;5050799;28;19913;-72
2022/10/29 03:58:43;;;;;;;;;;;14.40;99.90;;;;;;5053231;28;20017;-73
2022/10/29 04:01:10;;;;;;;;;;;14.30;99.90;;;;;;5052442;28;19965;-72
2022/10/29 04:03:36;;;;;;;;;;;14.20;99.90;;;;;;5070575;28;19913;-72
2022/10/29 04:06:07;;;;;;;;;;;14.20;99.90;;;;;;5068163;28;19920;-72
2022/10/29 04:08:33;;;;;;;;;;;14.20;99.90;;;;;;5059847;28;19919;-73
2022/10/29 04:10:59;;;;;;;;;;;14.20;99.90;;;;;;5050343;28;20006;-72
2022/10/29 04:13:24;;;;;;;;;;;14.20;99.90;;;;;;5070685;28;19920;-72
2022/10/29 04:15:54;;;;;;;;;;;14.30;99.90;;;;;;5067052;28;19996;-72
2022/10/29 04:18:19;;;;;;;;;;;14.30;99.90;;;;;;5067859;28;19912;-73
2022/10/29 04:20:45;;;;;;;;;;;14.40;99.90;;;;;;5049836;28;19913;-73
2022/10/29 04:23:11;;;;;;;;;;;14.40;99.90;;;;;;5066508;28;19983;-72
2022/10/29 04:25:36;;;;;;;;;;;14.40;99.90;;;;;;5066846;28;19919;-73
2022/10/29 04:28:06;;;;;;;;;;;14.40;99.90;;;;;;5072196;28;19971;-72
2022/10/29 04:30:32;;;;;;;;;;;14.40;99.90;;;;;;5054514;28;19920;-73
2022/10/29 04:32:58;;;;;;;;;;;14.40;99.90;;;;;;5073413;28;19920;-73
2022/10/29 04:35:36;;;;;;;;;;;14.40;99.90;;;;;;5065991;28;19912;-73
2022/10/29 04:38:08;;;;;;;;;;;14.40;99.90;;;;;;5052378;28;19920;-72
2022/10/29 04:40:34;;;;;;;;;;;14.40;99.90;;;;;;5063685;28;20012;-74
2022/10/29 04:43:00;;;;;;;;;;;14.40;99.90;;;;;;5073117;28;19928;-73
2022/10/29 04:45:26;;;;;;;;;;;14.40;99.90;;;;;;5074897;28;20075;-72
2022/10/29 04:47:59;;;;;;;;;;;14.40;99.90;;;;;;5072612;28;19920;-73
2022/10/29 04:50:25;;;;;;;;;;;14.40;99.90;;;;;;5047595;28;20055;-73
2022/10/29 04:52:51;;;;;;;;;;;14.40;99.90;;;;;;5054733;28;20003;-73
2022/10/29 04:55:17;;;;;;;;;;;14.40;99.90;;;;;;5067634;28;19921;-72
2022/10/29 04:57:47;;;;;;;;;;;14.30;99.90;;;;;;5078827;28;19943;-73
2022/10/29 05:00:13;;;;;;;;;;;14.30;99.90;;;;;;5051894;28;19912;-73
2022/10/29 05:02:39;;;;;;;;;;;14.30;99.90;;;;;;5077067;28;20392;-73
2022/10/29 05:05:05;;;;;;;;;;;14.30;99.90;;;;;;5068061;28;19913;-73
2022/10/29 05:07:31;;;;;;;;;;;14.20;99.90;;;;;;5069872;28;19913;-73
2022/10/29 05:09:56;;;;;;;;;;;14.10;99.90;;;;;;5071831;28;19912;-73
2022/10/29 05:12:22;;;;;;;;;;;14.00;99.90;;;;;;5089025;28;19920;-73
2022/10/29 05:14:48;;;;;;;;;;;14.00;99.90;;;;;;5073445;28;20323;-73
2022/10/29 05:17:13;;;;;;;;;;;14.00;99.90;;;;;;5074328;28;19919;-73
2022/10/29 05:19:39;;;;;;;;;;;13.90;99.90;;;;;;5070134;28;19923;-72
2022/10/29 05:22:05;;;;;;;;;;;13.90;99.90;;;;;;5074220;28;19915;-72
2022/10/29 05:24:31;;;;;;;;;;;14.00;99.90;;;;;;5088736;28;19912;-73
2022/10/29 05:26:56;;;;;;;;;;;14.00;99.90;;;;;;5093041;28;19908;-74
2022/10/29 05:29:22;;;;;;;;;;;14.00;99.90;;;;;;5080313;28;19923;-72
2022/10/29 05:31:48;;;;;;;;;;;14.00;99.90;;;;;;5080037;28;20364;-72
2022/10/29 05:34:13;;;;;;;;;;;13.90;99.90;;;;;;5072286;28;19918;-73
2022/10/29 05:36:39;;;;;;;;;;;13.90;99.90;;;;;;5061928;28;20495;-72
2022/10/29 05:39:05;;;;;;;;;;;13.80;99.90;;;;;;5074793;28;19962;-73
2022/10/29 05:41:31;;;;;;;;;;;13.80;99.90;;;;;;5072554;28;19912;-72
2022/10/29 05:43:56;;;;;;;;;;;13.80;99.90;;;;;;5058788;28;19947;-73
2022/10/29 05:46:22;;;;;;;;;;;13.80;99.90;;;;;;5092010;28;19958;-73
2022/10/29 05:48:48;;;;;;;;;;;13.70;99.90;;;;;;5072607;28;19912;-73
2022/10/29 05:51:14;;;;;;;;;;;13.70;99.90;;;;;;5055767;28;19916;-72
2022/10/29 05:53:39;;;;;;;;;;;13.70;99.90;;;;;;5058708;28;19912;-73
2022/10/29 05:56:06;;;;;;;;;;;13.70;99.90;;;;;;5073366;28;19919;-72
2022/10/29 05:58:31;;;;;;;;;;;13.70;99.90;;;;;;5068017;28;20042;-72
2022/10/29 06:00:57;;;;;;;;;;;13.70;99.90;;;;;;5054025;28;20357;-71
2022/10/29 06:03:23;;;;;;;;;;;13.80;99.90;;;;;;5053306;28;19913;-71
2022/10/29 06:05:49;;;;;;;;;;;13.80;99.90;;;;;;5068152;28;20294;-71
2022/10/29 06:08:15;;;;;;;;;;;13.80;99.90;;;;;;5075940;28;19908;-72
2022/10/29 06:10:41;;;;;;;;;;;13.90;99.90;;;;;;5071165;28;20283;-71
2022/10/29 06:13:11;;;;;;;;;;;13.90;99.90;;;;;;5050230;28;19927;-71
2022/10/29 06:15:36;;;;;;;;;;;13.90;99.90;;;;;;5072612;28;19913;-69
2022/10/29 06:18:02;;;;;;;;;;;13.90;99.90;;;;;;5068551;28;19919;-71
2022/10/29 06:20:28;;;;;;;;;;;13.90;99.90;;;;;;5068810;28;20295;-73
2022/10/29 06:22:57;;;;;;;;;;;14.00;99.90;;;;;;5070233;28;19919;-74
2022/10/29 06:25:23;;;;;;;;;;;14.00;99.90;;;;;;5073378;28;19908;-70
2022/10/29 06:28:03;;;;;;;;;;;14.20;99.90;;;;;;5052536;28;19920;-70
2022/10/29 06:30:29;;;;;;;;;;;14.30;99.90;;;;;;5055488;28;20289;-70
2022/10/29 06:32:55;;;;;;;;;;;14.40;99.90;;;;;;5073355;28;19999;-70
2022/10/29 06:35:20;;;;;;;;;;;14.40;99.90;;;;;;5055491;28;19944;-70
2022/10/29 06:37:46;;;;;;;;;;;14.50;99.90;;;;;;5073721;28;20301;-70
2022/10/29 06:40:12;;;;;;;;;;;14.50;99.90;;;;;;5073485;28;19919;-70
2022/10/29 06:42:37;;;;;;;;;;;14.60;99.90;;;;;;5073399;28;20008;-70
2022/10/29 06:45:03;;;;;;;;;;;14.60;99.90;;;;;;5073101;28;19955;-70
2022/10/29 06:47:29;;;;;;;;;;;14.70;99.90;;;;;;5055702;28;19915;-70
2022/10/29 06:49:54;;;;;;;;;;;14.70;99.90;;;;;;5073090;28;19915;-71
2022/10/29 06:52:20;;;;;;;;;;;14.70;99.90;;;;;;5073108;28;19912;-70
2022/10/29 06:54:46;;;;;;;;;;;14.70;99.90;;;;;;5073024;28;19909;-71
2022/10/29 06:57:12;;;;;;;;;;;14.70;99.90;;;;;;5056021;28;19960;-70
2022/10/29 06:59:37;;;;;;;;;;;14.80;99.90;;;;;;5076119;28;19916;-70
2022/10/29 07:02:03;;;;;;;;;;;14.90;99.90;;;;;;5058810;28;19917;-70
2022/10/29 07:04:29;;;;;;;;;;;14.90;99.90;;;;;;5071954;28;19912;-71
2022/10/29 07:06:57;;;;;;;;;;;15.10;99.90;;;;;;5089017;28;20396;-70
2022/10/29 07:09:23;;;;;;;;;;;15.10;99.90;;;;;;5061382;28;20274;-70
2022/10/29 07:11:49;;;;;;;;;;;15.10;99.90;;;;;;5083258;28;19916;-70
2022/10/29 07:14:14;;;;;;;;;;;15.20;99.90;;;;;;5080877;28;19912;-70
2022/10/29 07:16:40;;;;;;;;;;;15.50;99.90;;;;;;5067163;28;19912;-70
2022/10/29 07:19:06;;;;;;;;;;;15.60;99.90;;;;;;5081684;28;19912;-70
2022/10/29 07:21:32;;;;;;;;;;;15.90;99.90;;;;;;5086463;28;19912;-70
2022/10/29 07:23:58;;;;;;;;;;;16.10;99.90;;;;;;5074527;28;19912;-70
2022/10/29 07:26:24;;;;;;;;;;;16.20;99.90;;;;;;5084521;28;19912;-70
2022/10/29 07:28:49;;;;;;;;;;;16.40;99.90;;;;;;5074569;28;20322;-70
2022/10/29 07:31:15;;;;;;;;;;;16.40;99.90;;;;;;5076787;28;19942;-70
2022/10/29 07:33:41;;;;;;;;;;;16.40;99.90;;;;;;5071326;28;19928;-70
2022/10/29 07:36:06;;;;;;;;;;;16.40;99.90;;;;;;5086230;28;19919;-70
2022/10/29 07:38:32;;;;;;;;;;;16.30;99.90;;;;;;5082965;28;19958;-74
2022/10/29 07:40:58;;;;;;;;;;;16.50;99.90;;;;;;5082632;28;19917;-70
2022/10/29 07:43:24;;;;;;;;;;;16.60;99.90;;;;;;5087935;28;19930;-70
2022/10/29 07:45:50;;;;;;;;;;;16.50;99.90;;;;;;5081480;28;19968;-70
2022/10/29 07:48:17;;;;;;;;;;;16.60;99.90;;;;;;5096772;28;19908;-70
2022/10/29 07:50:42;;;;;;;;;;;16.60;99.90;;;;;;5063912;28;19912;-71
2022/10/29 07:53:09;;;;;;;;;;;16.70;99.90;;;;;;5086896;28;20271;-69
2022/10/29 07:55:34;;;;;;;;;;;17.00;99.90;;;;;;5086066;28;19912;-70
2022/10/29 07:58:02;;;;;;;;;;;17.40;99.90;;;;;;5082444;28;19923;-70
2022/10/29 08:00:31;;;;;;;;;;;17.60;99.90;;;;;;5074819;28;19942;-70
2022/10/29 08:02:57;;;;;;;;;;;17.80;99.90;;;;;;5078406;28;19931;-70
2022/10/29 08:05:23;;;;;;;;;;;18.00;99.90;;;;;;5082665;28;20374;-70
2022/10/29 08:07:49;;;;;;;;;;;17.80;99.90;;;;;;5078496;28;20278;-69
2022/10/29 08:10:15;;;;;;;;;;;18.00;99.90;;;;;;5061223;28;19912;-70
2022/10/29 08:12:53;;;;;;;;;;;18.10;99.90;;;;;;5078256;28;19961;-69
2022/10/29 08:15:19;;;;;;;;;;;18.10;99.90;;;;;;5076205;28;19912;-70
2022/10/29 08:17:45;;;;;;;;;;;18.20;99.90;;;;;;5082015;28;20305;-70
2022/10/29 08:20:11;;;;;;;;;;;18.30;99.90;;;;;;5070578;28;20209;-70
2022/10/29 08:22:36;;;;;;;;;;;18.30;99.90;;;;;;5062218;28;20342;-70
2022/10/29 08:25:02;;;;;;;;;;;18.50;99.90;;;;;;5077165;28;19963;-70
2022/10/29 08:27:28;;;;;;;;;;;18.50;99.90;;;;;;5066090;28;19920;-70
2022/10/29 08:29:54;;;;;;;;;;;18.40;99.90;;;;;;5080990;28;19912;-70
2022/10/29 08:32:19;;;;;;;;;;;18.30;99.90;;;;;;5085972;28;19970;-71
2022/10/29 08:34:45;;;;;;;;;;;18.30;99.90;;;;;;5071146;28;19959;-70
2022/10/29 08:37:11;;;;;;;;;;;18.40;99.90;;;;;;5068471;28;19919;-71
2022/10/29 08:39:37;;;;;;;;;;;18.40;99.90;;;;;;5080326;28;19913;-70
2022/10/29 08:42:10;;;;;;;;;;;18.40;99.90;;;;;;5079398;28;19912;-71
2022/10/29 08:44:45;;;;;;;;;;;18.40;99.90;;;;;;5066995;28;19912;-70
2022/10/29 08:47:19;;;;;;;;;;;18.40;99.90;;;;;;5083082;28;19913;-70
2022/10/29 08:49:51;;;;;;;;;;;18.50;99.90;;;;;;5082618;28;19912;-71
2022/10/29 08:52:23;;;;;;;;;;;18.50;99.90;;;;;;5075257;28;19920;-71
2022/10/29 08:54:51;;;;;;;;;;;18.60;99.90;;;;;;5074495;28;19980;-71
2022/10/29 08:57:19;;;;;;;;;;;18.60;99.90;;;;;;5066686;28;19919;-70
2022/10/29 09:00:00;;;;;;;;;;;18.70;99.90;;;;;;5077617;28;20038;-70
2022/10/29 09:02:28;;;;;;;;;;;18.80;99.90;;;;;;5086178;28;19912;-70
2022/10/29 09:04:54;;;;;;;;;;;18.90;99.90;;;;;;5066643;28;20373;-69
2022/10/29 09:07:33;;;;;;;;;;;19.00;99.90;;;;;;5083286;28;19931;-70
2022/10/29 09:10:03;;;;;;;;;;;19.00;99.90;;;;;;5090114;28;19952;-74
2022/10/29 09:12:32;;;;;;;;;;;19.10;99.90;;;;;;5083950;28;20278;-70
2022/10/29 09:15:00;;;;;;;;;;;19.20;99.90;;;;;;5085036;28;19913;-70
2022/10/29 09:17:43;;;;;;;;;;;19.30;99.90;;;;;;5079962;28;19917;-70
2022/10/29 09:20:12;;;;;;;;;;;19.40;99.90;;;;;;5083672;28;19920;-70
2022/10/29 09:22:47;;;;;;;;;;;19.50;99.90;;;;;;5069704;28;19912;-69
2022/10/29 09:25:19;;;;;;;;;;;19.50;99.90;;;;;;5081518;28;19923;-69
2022/10/29 09:28:03;;;;;;;;;;;19.70;99.90;;;;;;5082955;28;20553;-70
2022/10/29 09:30:30;;;;;;;;;;;19.70;99.90;;;;;;5081069;28;19935;-68
2022/10/29 09:32:58;;;;;;;;;;;19.70;99.90;;;;;;5080604;28;19986;-69
2022/10/29 09:35:36;;;;;;;;;;;19.70;99.90;;;;;;5085687;28;19912;-70
2022/10/29 09:38:07;;;;;;;;;;;19.80;99.90;;;;;;5083671;28;19923;-69
2022/10/29 09:40:35;;;;;;;;;;;19.80;99.90;;;;;;5079031;28;19912;-69
2022/10/29 09:43:17;;;;;;;;;;;19.70;99.90;;;;;;5083618;28;20130;-69
2022/10/29 09:45:51;;;;;;;;;;;19.70;99.90;;;;;;5080607;28;19920;-70
2022/10/29 09:48:32;;;;;;;;;;;19.80;99.90;;;;;;5073530;28;19967;-69
2022/10/29 09:51:07;;;;;;;;;;;19.70;99.90;;;;;;5089084;28;19916;-70
2022/10/29 09:53:33;;;;;;;;;;;19.80;99.90;;;;;;5071129;28;19916;-70
2022/10/29 09:55:58;;;;;;;;;;;19.80;99.90;;;;;;5083032;28;19919;-70
2022/10/29 09:58:26;;;;;;;;;;;19.70;99.90;;;;;;5081045;28;19963;-69
2022/10/29 10:00:52;;;;;;;;;;;19.70;99.90;;;;;;5080269;28;19920;-68
2022/10/29 10:03:17;;;;;;;;;;;19.70;99.90;;;;;;5082284;28;19909;-69
2022/10/29 10:06:03;;;;;;;;;;;19.70;99.90;;;;;;5079451;28;19934;-70
2022/10/29 10:08:30;;;;;;;;;;;19.80;99.90;;;;;;5075877;28;19913;-69
2022/10/29 10:10:58;;;;;;;;;;;19.80;99.90;;;;;;5074783;28;19935;-70
2022/10/29 10:13:34;;;;;;;;;;;19.80;99.90;;;;;;5084570;28;19919;-70
2022/10/29 10:16:01;;;;;;;;;;;19.80;99.90;;;;;;5062255;28;19936;-70
2022/10/29 10:18:30;;;;;;;;;;;19.80;99.90;;;;;;5085115;28;19908;-71
2022/10/29 10:21:06;;;;;;;;;;;19.90;99.90;;;;;;5084591;28;20003;-72
2022/10/29 10:23:40;;;;;;;;;;;19.90;99.90;;;;;;5082354;28;19919;-70
2022/10/29 10:26:25;;;;;;;;;;;20.00;99.90;;;;;;5075556;28;19982;-74
2022/10/29 10:29:10;;;;;;;;;;;20.00;99.90;;;;;;5092581;28;19966;-68
2022/10/29 10:31:35;;;;;;;;;;;20.10;99.90;;;;;;5076087;28;19917;-68
2022/10/29 10:34:07;;;;;;;;;;;20.10;99.90;;;;;;5072309;28;19919;-68
2022/10/29 10:36:37;;;;;;;;;;;20.20;99.90;;;;;;5067921;28;20003;-68
2022/10/29 10:39:05;;;;;;;;;;;20.20;99.90;;;;;;5087643;28;20486;-68
2022/10/29 10:41:33;;;;;;;;;;;20.30;99.90;;;;;;5066463;28;19987;-68
2022/10/29 10:44:00;;;;;;;;;;;20.20;99.90;;;;;;5089104;28;19912;-68
2022/10/29 10:46:28;;;;;;;;;;;20.30;99.90;;;;;;5081417;28;19908;-69
2022/10/29 10:48:57;;;;;;;;;;;20.40;99.90;;;;;;5079263;28;19916;-70
2022/10/29 10:51:25;;;;;;;;;;;20.40;99.90;;;;;;5083195;28;19924;-70
2022/10/29 10:53:51;;;;;;;;;;;20.50;99.90;;;;;;5078407;28;19939;-70
2022/10/29 10:56:18;;;;;;;;;;;20.50;99.90;;;;;;5093762;28;20263;-70
2022/10/29 10:58:46;;;;;;;;;;;20.50;99.90;;;;;;5081333;28;19923;-68
2022/10/29 11:01:32;;;;;;;;;;;20.60;99.90;;;;;;5090964;28;19938;-69
2022/10/29 11:04:08;;;;;;;;;;;20.60;99.90;;;;;;5066767;28;19984;-70
2022/10/29 11:06:38;;;;;;;;;;;20.60;99.90;;;;;;5087014;28;19996;-70
2022/10/29 11:09:26;;;;;;;;;;;20.70;99.90;;;;;;5093004;28;19915;-69
2022/10/29 11:12:08;;;;;;;;;;;20.70;99.90;;;;;;5089452;28;19999;-69
2022/10/29 11:14:37;;;;;;;;;;;20.70;99.90;;;;;;5071780;28;19916;-70
2022/10/29 11:17:12;;;;;;;;;;;20.70;99.90;;;;;;5077219;28;19943;-68
2022/10/29 11:19:48;;;;;;;;;;;20.80;99.90;;;;;;5068881;28;19913;-70
2022/10/29 11:22:32;;;;;;;;;;;20.80;99.90;;;;;;5062584;28;19928;-69
2022/10/29 11:25:01;;;;;;;;;;;20.90;99.90;;;;;;5091551;28;19908;-69
2022/10/29 11:27:31;;;;;;;;;;;20.90;99.90;;;;;;5085148;28;19912;-69
2022/10/29 11:30:01;;;;;;;;;;;20.90;99.90;;;;;;5081903;28;19944;-69
2022/10/29 11:32:53;;;;;;;;;;;20.90;99.90;;;;;;5086360;28;19924;-69
2022/10/29 11:35:22;;;;;;;;;;;20.80;99.90;;;;;;5063377;28;20003;-69
2022/10/29 11:38:08;;;;;;;;;;;20.90;99.90;;;;;;5088270;28;20324;-69
2022/10/29 11:40:52;;;;;;;;;;;20.90;99.90;;;;;;5065760;28;19909;-70
2022/10/29 11:43:19;;;;;;;;;;;20.90;99.90;;;;;;5050672;28;19919;-70
2022/10/29 11:46:07;;;;;;;;;;;20.90;99.90;;;;;;5084694;28;19908;-69
2022/10/29 11:48:45;;;;;;;;;;;20.90;99.90;;;;;;5099059;28;19912;-69
2022/10/29 11:51:29;;;;;;;;;;;20.90;99.90;;;;;;5072953;28;19912;-70
2022/10/29 11:53:58;;;;;;;;;;;21.00;99.90;;;;;;5080699;28;20004;-68
2022/10/29 11:56:43;;;;;;;;;;;20.90;99.90;;;;;;5089198;28;19964;-70
2022/10/29 11:59:18;;;;;;;;;;;21.00;99.90;;;;;;5048984;28;19927;-68
2022/10/29 12:02:03;;;;;;;;;;;20.90;99.90;;;;;;5086034;28;19918;-69
2022/10/29 12:04:45;;;;;;;;;;;20.90;99.90;;;;;;5077056;28;19913;-68
2022/10/29 12:07:19;;;;;;;;;;;20.90;99.90;;;;;;5083780;28;20439;-70
2022/10/29 12:09:59;;;;;;;;;;;20.90;99.90;;;;;;5079578;28;19919;-69
2022/10/29 12:12:28;;;;;;;;;;;20.90;99.90;;;;;;5059866;28;19995;-69
2022/10/29 12:15:18;;;;;;;;;;;21.00;99.90;;;;;;5093020;28;19916;-68
2022/10/29 12:18:01;;;;;;;;;;;21.00;99.90;;;;;;5083335;28;19943;-69
2022/10/29 12:20:31;;;;;;;;;;;21.10;99.90;;;;;;5058814;28;19909;-69
2022/10/29 12:23:24;;;;;;;;;;;21.10;99.90;;;;;;5071735;28;19912;-69
2022/10/29 12:26:05;;;;;;;;;;;21.00;99.90;;;;;;5059615;28;19908;-68
2022/10/29 12:28:46;;;;;;;;;;;21.00;99.90;;;;;;5079019;28;19909;-69
2022/10/29 12:31:12;;;;;;;;;;;21.00;99.90;;;;;;5079330;28;20516;-68
2022/10/29 12:33:44;;;;;;;;;;;21.00;99.90;;;;;;5078835;28;19923;-69
2022/10/29 12:36:25;;;;;;;;;;;20.90;99.90;;;;;;5058267;28;19954;-70
2022/10/29 12:39:01;;;;;;;;;;;21.00;99.90;;;;;;5058379;28;19962;-68
2022/10/29 12:41:37;;;;;;;;;;;21.00;99.90;;;;;;5063223;28;19931;-69
2022/10/29 12:44:11;;;;;;;;;;;21.00;99.90;;;;;;5077931;28;20413;-69
2022/10/29 12:46:52;;;;;;;;;;;21.10;99.90;;;;;;5079297;28;19932;-69
2022/10/29 12:49:22;;;;;;;;;;;21.00;99.90;;;;;;5060363;28;20374;-69
2022/10/29 12:51:55;;;;;;;;;;;21.00;99.90;;;;;;5059634;28;19916;-70
2022/10/29 12:54:27;;;;;;;;;;;21.00;99.90;;;;;;5077206;28;19916;-69
2022/10/29 12:56:55;;;;;;;;;;;20.90;99.90;;;;;;5076998;28;19912;-69
2022/10/29 12:59:24;;;;;;;;;;;20.90;99.90;;;;;;5077075;28;19916;-69
2022/10/29 13:01:52;;;;;;;;;;;21.00;99.90;;;;;;5078196;28;19909;-71
2022/10/29 13:04:25;;;;;;;;;;;21.00;99.90;;;;;;5077135;28;19917;-69
2022/10/29 13:06:54;;;;;;;;;;;21.10;99.90;;;;;;5059408;28;19908;-69
2022/10/29 13:09:24;;;;;;;;;;;21.10;99.90;;;;;;5077411;28;19909;-69
2022/10/29 13:11:50;;;;;;;;;;;21.20;99.90;;;;;;5084295;28;19912;-69
2022/10/29 13:14:23;;;;;;;;;;;21.30;99.90;;;;;;5090175;28;20616;-69
2022/10/29 13:16:50;;;;;;;;;;;21.30;99.90;;;;;;5067877;28;19919;-70
2022/10/29 13:19:33;;;;;;;;;;;21.40;99.90;;;;;;5088664;28;20042;-69
2022/10/29 13:22:25;;;;;;;;;;;21.40;99.90;;;;;;5082652;28;19990;-70
2022/10/29 13:25:12;;;;;;;;;;;21.40;99.90;;;;;;5090740;28;20010;-69
2022/10/29 13:27:38;;;;;;;;;;;21.40;99.90;;;;;;5058579;28;19916;-70
2022/10/29 13:30:13;;;;;;;;;;;21.40;99.90;;;;;;5084597;28;19921;-69
2022/10/29 13:32:38;;;;;;;;;;;21.40;99.90;;;;;;5066766;28;19948;-69
2022/10/29 13:35:24;;;;;;;;;;;21.30;99.90;;;;;;5070452;28;19945;-68
2022/10/29 13:37:51;;;;;;;;;;;21.20;99.90;;;;;;5082206;28;19919;-70
2022/10/29 13:40:32;;;;;;;;;;;21.10;99.90;;;;;;5087699;28;19916;-69
2022/10/29 13:43:14;;;;;;;;;;;21.00;99.90;;;;;;5070660;28;19916;-69
2022/10/29 13:45:41;;;;;;;;;;;21.10;99.90;;;;;;5082678;28;19912;-69
2022/10/29 13:48:13;;;;;;;;;;;21.00;99.90;;;;;;5087398;28;19909;-68
2022/10/29 13:50:39;;;;;;;;;;;21.00;99.90;;;;;;5081216;28;20294;-69
2022/10/29 13:53:08;;;;;;;;;;;20.90;99.90;;;;;;5086290;28;19987;-70
2022/10/29 13:55:35;;;;;;;;;;;20.90;99.90;;;;;;5093675;28;19920;-69
2022/10/29 13:58:01;;;;;;;;;;;20.90;99.90;;;;;;5093351;28;19912;-73
2022/10/29 14:00:27;;;;;;;;;;;20.90;99.90;;;;;;5073089;28;19974;-70
2022/10/29 14:03:05;;;;;;;;;;;20.90;99.90;;;;;;5086858;28;19947;-70
2022/10/29 14:05:37;;;;;;;;;;;20.90;99.90;;;;;;5086239;28;19920;-70
2022/10/29 14:08:06;;;;;;;;;;;20.90;99.90;;;;;;5085486;28;19920;-70
2022/10/29 14:10:34;;;;;;;;;;;20.80;99.90;;;;;;5064295;28;19952;-74
2022/10/29 14:13:18;;;;;;;;;;;20.80;99.90;;;;;;5086224;28;19917;-71
2022/10/29 14:16:08;;;;;;;;;;;20.80;99.90;;;;;;5079558;28;19967;-70
2022/10/29 14:18:44;;;;;;;;;;;20.70;99.90;;;;;;5082441;28;19912;-72
2022/10/29 14:21:23;;;;;;;;;;;20.70;99.90;;;;;;5082207;28;19980;-71
2022/10/29 14:23:55;;;;;;;;;;;20.70;99.90;;;;;;5083779;28;20405;-72
2022/10/29 14:26:23;;;;;;;;;;;20.70;99.90;;;;;;5077379;28;19918;-75
2022/10/29 14:28:49;;;;;;;;;;;20.80;99.90;;;;;;5083787;28;19909;-70
2022/10/29 14:31:16;;;;;;;;;;;20.70;99.90;;;;;;5079099;28;19916;-70
2022/10/29 14:33:45;;;;;;;;;;;20.80;99.90;;;;;;5080721;28;19916;-73
2022/10/29 14:36:14;;;;;;;;;;;20.90;99.90;;;;;;5086899;28;19912;-71